createdAt,value
2023-05-14T00:02:05.145Z,13.40
2023-05-14T00:04:33.376Z,13.50
2023-05-14T00:07:01.143Z,13.40
2023-05-14T00:09:30.880Z,13.40
2023-05-14T00:11:58.574Z,13.40
2023-05-14T00:14:26.350Z,13.40
2023-05-14T00:16:54.076Z,13.40
2023-05-14T00:19:21.693Z,13.40
2023-05-14T00:21:49.371Z,13.30
2023-05-14T00:24:17.470Z,13.40
2023-05-14T00:26:45.079Z,13.40
2023-05-14T00:29:12.880Z,13.30
2023-05-14T00:31:40.666Z,13.30
2023-05-14T00:34:08.342Z,13.30
2023-05-14T00:36:36.058Z,13.30
2023-05-14T00:39:03.838Z,13.30
2023-05-14T00:41:31.357Z,13.30
2023-05-14T00:43:59.124Z,13.30
2023-05-14T00:46:27.374Z,13.20
2023-05-14T00:48:55.531Z,13.20
2023-05-14T00:51:23.626Z,13.20
2023-05-14T00:53:52.495Z,13.20
2023-05-14T00:56:20.172Z,13.20
2023-05-14T00:58:47.958Z,13.20
2023-05-14T01:01:16.676Z,13.20
2023-05-14T01:03:45.017Z,13.20
2023-05-14T01:06:24.037Z,13.20
2023-05-14T01:09:06.673Z,13.20
2023-05-14T01:11:42.429Z,13.10
2023-05-14T01:14:34.510Z,13.10
2023-05-14T01:17:04.678Z,13.20
2023-05-14T01:19:45.324Z,13.10
2023-05-14T01:22:13.984Z,13.10
2023-05-14T01:24:41.674Z,13.10
2023-05-14T01:27:24.924Z,13.10
2023-05-14T01:30:13.874Z,13.10
2023-05-14T01:32:45.141Z,13.10
2023-05-14T01:35:14.374Z,13.10
2023-05-14T01:37:43.006Z,13.10
2023-05-14T01:40:14.060Z,13.10
2023-05-14T01:42:42.309Z,13.10
2023-05-14T01:45:10.589Z,13.10
2023-05-14T01:47:38.390Z,13.10
2023-05-14T01:50:06.640Z,13.10
2023-05-14T01:52:35.078Z,13.10
2023-05-14T01:55:02.740Z,13.10
2023-05-14T01:57:30.271Z,13.00
2023-05-14T01:59:57.896Z,13.10
2023-05-14T02:02:25.725Z,13.10
2023-05-14T02:04:53.550Z,13.00
2023-05-14T02:07:21.344Z,13.00
2023-05-14T02:09:48.952Z,13.00
2023-05-14T02:12:16.545Z,13.00
2023-05-14T02:14:44.055Z,12.90
2023-05-14T02:17:12.094Z,13.00
2023-05-14T02:19:39.586Z,13.00
2023-05-14T02:22:06.947Z,12.90
2023-05-14T02:24:34.897Z,12.90
2023-05-14T02:27:02.448Z,12.90
2023-05-14T02:29:30.111Z,12.80
2023-05-14T02:31:57.816Z,12.90
2023-05-14T02:34:25.964Z,12.80
2023-05-14T02:36:53.600Z,12.90
2023-05-14T02:39:22.493Z,12.80
2023-05-14T02:41:50.654Z,12.80
2023-05-14T02:44:18.447Z,12.80
2023-05-14T02:46:46.306Z,12.70
2023-05-14T02:49:14.063Z,12.70
2023-05-14T02:51:41.714Z,12.70
2023-05-14T02:54:09.548Z,12.70
2023-05-14T02:56:36.939Z,12.70
2023-05-14T02:59:04.778Z,12.70
2023-05-14T03:01:33.057Z,12.60
2023-05-14T03:04:01.184Z,12.60
2023-05-14T03:06:28.850Z,12.60
2023-05-14T03:08:56.427Z,12.60
2023-05-14T03:11:23.863Z,12.60
2023-05-14T03:13:51.597Z,12.60
2023-05-14T03:16:19.268Z,12.50
2023-05-14T03:18:47.004Z,12.50
2023-05-14T03:21:14.615Z,12.60
2023-05-14T03:23:42.214Z,12.50
2023-05-14T03:26:10.044Z,12.50
2023-05-14T03:28:37.652Z,12.50
2023-05-14T03:31:05.493Z,12.50
2023-05-14T03:33:33.136Z,12.60
2023-05-14T03:36:01.034Z,12.60
2023-05-14T03:38:28.684Z,12.60
2023-05-14T03:40:56.948Z,12.60
2023-05-14T03:43:24.371Z,12.60
2023-05-14T03:45:52.753Z,12.50
2023-05-14T03:48:20.977Z,12.50
2023-05-14T03:50:48.621Z,12.50
2023-05-14T03:53:17.000Z,12.50
2023-05-14T03:55:46.789Z,12.50
2023-05-14T03:58:15.138Z,12.50
2023-05-14T04:00:43.256Z,12.50
2023-05-14T04:03:12.050Z,12.50
2023-05-14T04:05:39.763Z,12.50
2023-05-14T04:08:07.686Z,12.50
2023-05-14T04:10:35.364Z,12.40
2023-05-14T04:13:02.931Z,12.40
2023-05-14T04:15:33.551Z,12.40
2023-05-14T04:18:01.129Z,12.40
2023-05-14T04:20:29.349Z,12.30
2023-05-14T04:22:56.976Z,12.40
2023-05-14T04:25:24.504Z,12.30
2023-05-14T04:27:52.037Z,12.40
2023-05-14T04:30:19.852Z,12.40
2023-05-14T04:32:48.108Z,12.40
2023-05-14T04:35:15.791Z,12.40
2023-05-14T04:37:43.434Z,12.40
2023-05-14T04:40:11.391Z,12.30
2023-05-14T04:42:39.455Z,12.30
2023-05-14T04:45:07.681Z,12.30
2023-05-14T04:47:35.362Z,12.30
2023-05-14T04:50:03.324Z,12.30
2023-05-14T04:52:30.984Z,12.30
2023-05-14T04:54:58.733Z,12.30
2023-05-14T04:57:26.618Z,12.30
2023-05-14T04:59:54.450Z,12.30
2023-05-14T05:02:22.451Z,12.30
2023-05-14T05:04:50.105Z,12.30
2023-05-14T05:07:17.766Z,12.30
2023-05-14T05:09:45.319Z,12.30
2023-05-14T05:12:12.953Z,12.30
2023-05-14T05:14:40.679Z,12.30
2023-05-14T05:17:08.722Z,12.30
2023-05-14T05:19:43.843Z,12.30
2023-05-14T05:22:12.036Z,12.30
2023-05-14T05:24:40.426Z,12.30
2023-05-14T05:27:08.124Z,12.30
2023-05-14T05:29:36.427Z,12.30
2023-05-14T05:32:04.644Z,12.30
2023-05-14T05:34:32.756Z,12.30
2023-05-14T05:37:00.295Z,12.30
2023-05-14T05:39:28.107Z,12.30
2023-05-14T05:41:56.041Z,12.20
2023-05-14T05:44:23.724Z,12.20
2023-05-14T05:46:51.375Z,12.20
2023-05-14T05:49:18.863Z,12.20
2023-05-14T05:51:46.549Z,12.20
2023-05-14T05:54:14.193Z,12.20
2023-05-14T05:56:42.156Z,12.20
2023-05-14T05:59:09.987Z,12.20
2023-05-14T06:01:37.951Z,12.20
2023-05-14T06:04:06.462Z,12.20
2023-05-14T06:06:33.996Z,12.20
2023-05-14T06:09:02.059Z,12.30
2023-05-14T06:11:29.553Z,12.30
2023-05-14T06:13:57.010Z,12.40
2023-05-14T06:16:24.710Z,12.30
2023-05-14T06:18:53.001Z,12.30
2023-05-14T06:21:20.739Z,12.30
2023-05-14T06:23:48.287Z,12.40
2023-05-14T06:26:15.885Z,12.40
2023-05-14T06:28:43.467Z,12.30
2023-05-14T06:31:11.216Z,12.30
2023-05-14T06:33:39.270Z,12.40
2023-05-14T06:36:07.978Z,12.30
2023-05-14T06:38:35.411Z,12.30
2023-05-14T06:41:03.214Z,12.40
2023-05-14T06:43:30.739Z,12.40
2023-05-14T06:45:58.155Z,12.40
2023-05-14T06:48:27.893Z,12.40
2023-05-14T06:50:55.832Z,12.40
2023-05-14T06:53:23.246Z,12.40
2023-05-14T06:55:50.829Z,12.50
2023-05-14T06:58:18.756Z,12.40
2023-05-14T07:00:46.112Z,12.50
2023-05-14T07:03:13.591Z,12.50
2023-05-14T07:05:41.403Z,12.50
2023-05-14T07:08:08.829Z,12.50
2023-05-14T07:10:36.296Z,12.50
2023-05-14T07:13:03.969Z,12.50
2023-05-14T07:15:31.722Z,12.50
2023-05-14T07:17:59.540Z,12.50
2023-05-14T07:20:27.331Z,12.50
2023-05-14T07:22:55.081Z,12.50
2023-05-14T07:25:22.724Z,12.50
2023-05-14T07:27:50.369Z,12.60
2023-05-14T07:30:17.817Z,12.60
2023-05-14T07:32:45.573Z,12.60
2023-05-14T07:35:13.111Z,12.60
2023-05-14T07:37:41.131Z,12.60
2023-05-14T07:40:09.360Z,12.60
2023-05-14T07:42:37.628Z,12.70
2023-05-14T07:45:05.974Z,12.70
2023-05-14T07:47:35.009Z,12.70
2023-05-14T07:50:03.574Z,12.80
2023-05-14T07:52:33.265Z,12.80
2023-05-14T07:55:01.471Z,12.90
2023-05-14T07:57:29.088Z,12.90
2023-05-14T07:59:56.949Z,13.00
2023-05-14T08:02:24.595Z,13.00
2023-05-14T08:04:52.244Z,13.10
2023-05-14T08:07:19.653Z,13.20
2023-05-14T08:09:47.237Z,13.30
2023-05-14T08:12:14.982Z,13.40
2023-05-14T08:14:42.547Z,13.40
2023-05-14T08:17:10.160Z,13.50
2023-05-14T08:19:37.781Z,13.60
2023-05-14T08:22:05.665Z,13.70
2023-05-14T08:24:33.213Z,13.80
2023-05-14T08:27:00.664Z,13.90
2023-05-14T08:29:28.434Z,14.00
2023-05-14T08:31:55.892Z,14.00
2023-05-14T08:34:23.430Z,14.10
2023-05-14T08:36:51.071Z,14.20
2023-05-14T08:39:18.489Z,14.30
2023-05-14T08:41:46.598Z,14.30
2023-05-14T08:44:18.791Z,14.40
2023-05-14T08:46:46.901Z,14.50
2023-05-14T08:49:42.751Z,14.50
2023-05-14T08:52:11.272Z,14.80
2023-05-14T08:54:40.190Z,14.90
2023-05-14T08:57:10.755Z,15.00
2023-05-14T08:59:38.575Z,15.00
2023-05-14T09:02:08.585Z,15.20
2023-05-14T09:04:37.285Z,15.30
2023-05-14T09:07:07.192Z,15.40
2023-05-14T09:09:35.392Z,15.50
2023-05-14T09:12:04.136Z,15.60
2023-05-14T09:14:33.632Z,15.70
2023-05-14T09:17:01.276Z,15.70
2023-05-14T09:19:29.017Z,15.80
2023-05-14T09:21:59.037Z,15.90
2023-05-14T09:24:29.545Z,15.90
2023-05-14T09:26:58.288Z,16.00
2023-05-14T09:29:26.783Z,16.10
2023-05-14T09:31:55.986Z,16.10
2023-05-14T09:34:32.208Z,16.10
2023-05-14T09:37:05.282Z,16.20
2023-05-14T09:39:33.994Z,16.20
2023-05-14T09:42:02.117Z,16.20
2023-05-14T09:44:29.732Z,16.30
2023-05-14T09:46:57.401Z,16.40
2023-05-14T09:49:25.133Z,16.40
2023-05-14T09:51:52.819Z,16.40
2023-05-14T09:54:20.630Z,16.50
2023-05-14T09:56:48.212Z,16.60
2023-05-14T09:59:15.725Z,16.60
2023-05-14T10:01:44.567Z,16.60
2023-05-14T10:04:13.530Z,16.70
2023-05-14T10:06:42.514Z,16.80
2023-05-14T10:09:16.782Z,16.90
2023-05-14T10:11:46.235Z,17.10
2023-05-14T10:14:35.994Z,17.30
2023-05-14T10:17:05.925Z,17.50
2023-05-14T10:19:37.419Z,17.70
2023-05-14T10:22:09.402Z,18.00
2023-05-14T10:24:39.018Z,18.30
2023-05-14T10:27:06.957Z,18.50
2023-05-14T10:29:36.516Z,18.80
2023-05-14T10:32:09.396Z,19.10
2023-05-14T10:34:44.100Z,19.30
2023-05-14T10:37:23.627Z,19.60
2023-05-14T10:39:52.314Z,20.00
2023-05-14T10:42:21.377Z,20.30
2023-05-14T10:44:58.360Z,20.60
2023-05-14T10:47:29.734Z,21.00
2023-05-14T10:50:03.390Z,21.30
2023-05-14T10:52:32.122Z,21.60
2023-05-14T10:55:03.678Z,21.80
2023-05-14T10:57:32.508Z,22.10
2023-05-14T11:00:01.768Z,22.40
2023-05-14T11:02:37.671Z,22.60
2023-05-14T11:05:11.126Z,22.80
2023-05-14T11:07:41.287Z,23.10
2023-05-14T11:10:10.987Z,23.30
2023-05-14T11:12:41.200Z,23.50
2023-05-14T11:15:11.204Z,23.70
2023-05-14T11:17:41.698Z,23.90
2023-05-14T11:20:10.581Z,24.10
2023-05-14T11:22:39.951Z,24.40
2023-05-14T11:25:09.431Z,24.60
2023-05-14T11:27:39.064Z,24.80
2023-05-14T11:30:12.554Z,25.00
2023-05-14T11:32:40.819Z,25.20
2023-05-14T11:35:08.742Z,25.40
2023-05-14T11:37:36.346Z,25.50
2023-05-14T11:40:09.993Z,25.70
2023-05-14T11:42:38.640Z,25.90
2023-05-14T11:45:06.950Z,26.10
2023-05-14T11:47:34.441Z,26.20
2023-05-14T11:50:02.082Z,26.30
2023-05-14T11:52:30.279Z,26.40
2023-05-14T11:54:57.815Z,26.50
2023-05-14T11:57:26.127Z,26.70
2023-05-14T11:59:57.856Z,26.80
2023-05-14T12:02:29.122Z,26.90
2023-05-14T12:04:57.803Z,26.90
2023-05-14T12:07:30.221Z,27.10
2023-05-14T12:10:01.807Z,27.20
2023-05-14T12:12:36.292Z,27.40
2023-05-14T12:15:13.970Z,27.60
2023-05-14T12:17:41.863Z,27.80
2023-05-14T12:20:11.252Z,28.00
2023-05-14T12:22:41.608Z,28.10
2023-05-14T12:25:13.806Z,28.20
2023-05-14T12:27:44.771Z,28.30
2023-05-14T12:30:21.387Z,28.40
2023-05-14T12:33:00.875Z,28.50
2023-05-14T12:35:28.425Z,28.70
2023-05-14T12:37:55.950Z,28.70
2023-05-14T12:40:23.741Z,28.90
2023-05-14T12:42:51.667Z,29.00
2023-05-14T12:45:19.458Z,29.10
2023-05-14T12:47:47.149Z,29.10
2023-05-14T12:50:14.808Z,29.20
2023-05-14T12:52:42.661Z,29.20
2023-05-14T12:55:11.090Z,29.30
2023-05-14T12:57:39.701Z,29.40
2023-05-14T13:00:13.043Z,29.50
2023-05-14T13:02:42.659Z,29.50
2023-05-14T13:05:14.636Z,29.60
2023-05-14T13:07:42.635Z,29.70
2023-05-14T13:10:11.507Z,29.80
2023-05-14T13:12:39.285Z,29.90
2023-05-14T13:15:07.373Z,30.10
2023-05-14T13:17:35.824Z,30.30
2023-05-14T13:20:04.744Z,30.40
2023-05-14T13:22:32.460Z,30.50
2023-05-14T13:25:00.240Z,30.50
2023-05-14T13:27:27.893Z,30.60
2023-05-14T13:29:55.720Z,30.60
2023-05-14T13:32:23.475Z,30.60
2023-05-14T13:34:51.224Z,30.60
2023-05-14T13:37:18.882Z,30.60
2023-05-14T13:39:46.510Z,30.70
2023-05-14T13:42:14.237Z,30.80
2023-05-14T13:44:42.106Z,30.90
2023-05-14T13:47:09.619Z,31.00
2023-05-14T13:49:37.281Z,31.10
2023-05-14T13:52:05.565Z,31.20
2023-05-14T13:54:33.145Z,31.30
2023-05-14T13:57:00.665Z,31.30
2023-05-14T13:59:28.972Z,31.40
2023-05-14T14:01:56.671Z,31.50
2023-05-14T14:04:28.769Z,31.60
2023-05-14T14:06:56.957Z,31.70
2023-05-14T14:09:24.735Z,31.80
2023-05-14T14:11:52.491Z,31.90
2023-05-14T14:14:20.081Z,32.00
2023-05-14T14:16:47.601Z,32.20
2023-05-14T14:19:16.414Z,32.30
2023-05-14T14:21:46.230Z,32.40
2023-05-14T14:24:13.843Z,32.40
2023-05-14T14:26:41.649Z,32.40
2023-05-14T14:29:09.273Z,32.30
2023-05-14T14:31:37.098Z,32.30
2023-05-14T14:34:04.902Z,32.30
2023-05-14T14:36:32.367Z,32.40
2023-05-14T14:38:59.904Z,32.50
2023-05-14T14:41:27.751Z,32.50
2023-05-14T14:43:55.341Z,32.60
2023-05-14T14:46:23.026Z,32.60
2023-05-14T14:48:51.222Z,32.70
2023-05-14T14:51:18.901Z,32.70
2023-05-14T14:53:46.504Z,32.70
2023-05-14T14:56:14.219Z,32.60
2023-05-14T14:58:41.727Z,32.60
2023-05-14T15:01:09.312Z,32.40
2023-05-14T15:03:36.896Z,32.30
2023-05-14T15:06:04.723Z,32.20
2023-05-14T15:08:32.267Z,32.00
2023-05-14T15:10:59.668Z,31.80
2023-05-14T15:13:27.430Z,31.70
2023-05-14T15:15:55.358Z,31.50
2023-05-14T15:18:23.128Z,31.40
2023-05-14T15:20:50.796Z,31.20
2023-05-14T15:23:18.788Z,31.10
2023-05-14T15:25:46.278Z,31.00
2023-05-14T15:28:14.047Z,30.80
2023-05-14T15:30:41.659Z,30.70
2023-05-14T15:33:09.554Z,30.50
2023-05-14T15:35:37.209Z,30.30
2023-05-14T15:38:04.945Z,30.10
2023-05-14T15:40:34.974Z,29.90
2023-05-14T15:43:02.682Z,29.70
2023-05-14T15:45:30.268Z,29.50
2023-05-14T15:47:57.877Z,29.40
2023-05-14T15:50:27.495Z,29.20
2023-05-14T15:52:55.250Z,29.00
2023-05-14T15:55:22.873Z,28.90
2023-05-14T15:57:50.366Z,28.70
2023-05-14T16:00:18.503Z,28.70
2023-05-14T16:02:46.164Z,28.60
2023-05-14T16:05:14.108Z,28.50
2023-05-14T16:07:42.932Z,28.50
2023-05-14T16:10:10.694Z,28.40
2023-05-14T16:12:38.198Z,28.30
2023-05-14T16:15:08.111Z,28.20
2023-05-14T16:17:36.053Z,28.20
2023-05-14T16:20:05.165Z,28.20
2023-05-14T16:22:34.690Z,28.10
2023-05-14T16:25:03.541Z,28.10
2023-05-14T16:27:32.014Z,28.10
2023-05-14T16:29:59.601Z,28.00
2023-05-14T16:32:27.705Z,28.00
2023-05-14T16:34:56.511Z,28.00
2023-05-14T16:37:24.351Z,28.00
2023-05-14T16:39:52.050Z,28.10
2023-05-14T16:42:19.700Z,28.10
2023-05-14T16:44:47.341Z,28.10
2023-05-14T16:47:14.936Z,28.10
2023-05-14T16:49:43.279Z,28.20
2023-05-14T16:52:10.926Z,28.20
2023-05-14T16:54:38.461Z,28.30
2023-05-14T16:57:06.002Z,28.30
2023-05-14T16:59:33.578Z,28.40
2023-05-14T17:02:02.020Z,28.40
2023-05-14T17:04:29.778Z,28.40
2023-05-14T17:06:57.747Z,28.40
2023-05-14T17:09:25.614Z,28.30
2023-05-14T17:11:53.431Z,28.30
2023-05-14T17:14:21.142Z,28.10
2023-05-14T17:16:48.896Z,28.00
2023-05-14T17:19:17.129Z,27.90
2023-05-14T17:21:44.793Z,27.80
2023-05-14T17:24:12.206Z,27.70
2023-05-14T17:26:39.756Z,27.60
2023-05-14T17:29:07.217Z,27.50
2023-05-14T17:31:35.027Z,27.30
2023-05-14T17:34:02.896Z,27.20
2023-05-14T17:36:32.344Z,27.00
2023-05-14T17:38:59.994Z,26.80
2023-05-14T17:41:27.539Z,26.60
2023-05-14T17:43:54.947Z,26.40
2023-05-14T17:46:23.147Z,26.30
2023-05-14T17:48:50.669Z,26.10
2023-05-14T17:51:18.184Z,25.90
2023-05-14T17:53:46.335Z,25.80
2023-05-14T17:56:13.835Z,25.60
2023-05-14T17:58:41.722Z,25.50
2023-05-14T18:01:09.335Z,25.30
2023-05-14T18:03:37.150Z,25.20
2023-05-14T18:06:05.034Z,25.10
2023-05-14T18:08:32.670Z,24.90
2023-05-14T18:11:00.905Z,24.80
2023-05-14T18:13:28.571Z,24.60
2023-05-14T18:15:56.589Z,24.50
2023-05-14T18:18:24.293Z,24.30
2023-05-14T18:20:52.137Z,24.10
2023-05-14T18:23:20.006Z,24.00
2023-05-14T18:25:48.393Z,23.80
2023-05-14T18:28:16.007Z,23.60
2023-05-14T18:30:45.266Z,23.50
2023-05-14T18:33:12.937Z,23.40
2023-05-14T18:35:43.413Z,23.20
2023-05-14T18:38:12.403Z,23.10
2023-05-14T18:40:39.922Z,23.00
2023-05-14T18:43:07.603Z,22.90
2023-05-14T18:45:35.229Z,22.80
2023-05-14T18:48:02.753Z,22.70
2023-05-14T18:50:30.667Z,22.60
2023-05-14T18:52:58.092Z,22.50
2023-05-14T18:55:26.014Z,22.40
2023-05-14T18:57:53.872Z,22.30
2023-05-14T19:00:21.387Z,22.20
2023-05-14T19:02:49.190Z,22.10
2023-05-14T19:05:16.978Z,22.00
2023-05-14T19:07:47.862Z,21.90
2023-05-14T19:10:15.895Z,21.80
2023-05-14T19:12:43.577Z,21.70
2023-05-14T19:15:11.694Z,21.60
2023-05-14T19:17:40.245Z,21.50
2023-05-14T19:20:08.703Z,21.40
2023-05-14T19:22:36.416Z,21.30
2023-05-14T19:25:05.153Z,21.30
2023-05-14T19:27:33.399Z,21.20
2023-05-14T19:30:00.905Z,21.10
2023-05-14T19:32:28.417Z,21.00
2023-05-14T19:34:56.213Z,20.90
2023-05-14T19:37:24.208Z,20.80
2023-05-14T19:39:51.812Z,20.70
2023-05-14T19:42:19.445Z,20.70
2023-05-14T19:44:47.129Z,20.60
2023-05-14T19:47:15.049Z,20.50
2023-05-14T19:49:42.705Z,20.50
2023-05-14T19:52:11.414Z,20.40
2023-05-14T19:54:39.110Z,20.40
2023-05-14T19:57:06.914Z,20.30
2023-05-14T19:59:34.776Z,20.20
2023-05-14T20:02:02.443Z,20.20
2023-05-14T20:04:30.170Z,20.10
2023-05-14T20:06:58.448Z,20.00
2023-05-14T20:09:26.094Z,20.00
2023-05-14T20:11:53.684Z,19.90
2023-05-14T20:14:21.376Z,19.80
2023-05-14T20:16:49.111Z,19.80
2023-05-14T20:19:16.875Z,19.70
2023-05-14T20:21:44.449Z,19.70
2023-05-14T20:24:12.206Z,19.60
2023-05-14T20:26:39.732Z,19.50
2023-05-14T20:29:07.229Z,19.50
2023-05-14T20:31:35.122Z,19.50
2023-05-14T20:34:03.536Z,19.40
2023-05-14T20:36:31.753Z,19.30
2023-05-14T20:39:00.445Z,19.30
2023-05-14T20:41:27.962Z,19.30
2023-05-14T20:43:55.586Z,19.30
2023-05-14T20:46:23.210Z,19.20
2023-05-14T20:48:51.867Z,19.20
2023-05-14T20:51:19.379Z,19.20
2023-05-14T20:53:47.179Z,19.10
2023-05-14T20:56:14.895Z,19.10
2023-05-14T20:58:42.363Z,19.10
2023-05-14T21:01:10.005Z,19.10
2023-05-14T21:03:37.714Z,19.10
2023-05-14T21:06:05.588Z,19.00
2023-05-14T21:08:34.949Z,19.00
2023-05-14T21:11:02.378Z,19.00
2023-05-14T21:13:29.790Z,19.00
2023-05-14T21:15:57.415Z,18.90
2023-05-14T21:18:27.000Z,18.90
2023-05-14T21:20:54.569Z,18.90
2023-05-14T21:23:22.031Z,18.90
2023-05-14T21:25:49.477Z,18.90
2023-05-14T21:28:16.999Z,18.80
2023-05-14T21:30:44.361Z,18.80
2023-05-14T21:33:11.800Z,18.80
2023-05-14T21:35:39.343Z,18.70
2023-05-14T21:38:08.871Z,18.70
2023-05-14T21:40:36.354Z,18.70
2023-05-14T21:43:03.781Z,18.70
2023-05-14T21:45:31.797Z,18.60
2023-05-14T21:47:59.470Z,18.60
2023-05-14T21:50:27.108Z,18.60
2023-05-14T21:52:55.376Z,18.60
2023-05-14T21:55:23.436Z,18.60
2023-05-14T21:57:51.409Z,18.50
2023-05-14T22:00:23.344Z,18.50
2023-05-14T22:02:52.892Z,18.50
2023-05-14T22:05:22.432Z,18.40
2023-05-14T22:07:50.426Z,18.40
2023-05-14T22:10:18.704Z,18.40
2023-05-14T22:12:46.335Z,18.40
2023-05-14T22:15:14.095Z,18.30
2023-05-14T22:17:42.432Z,18.30
2023-05-14T22:20:10.477Z,18.20
2023-05-14T22:22:39.506Z,18.20
2023-05-14T22:25:07.624Z,18.20
2023-05-14T22:27:35.140Z,18.20
2023-05-14T22:30:02.877Z,18.10
2023-05-14T22:32:30.582Z,18.10
2023-05-14T22:34:58.226Z,18.10
2023-05-14T22:37:25.903Z,18.10
2023-05-14T22:39:53.385Z,18.10
2023-05-14T22:42:20.952Z,18.00
2023-05-14T22:44:48.562Z,18.00
2023-05-14T22:47:16.477Z,18.00
2023-05-14T22:49:44.275Z,17.90
2023-05-14T22:52:11.857Z,17.90
2023-05-14T22:54:39.442Z,17.90
2023-05-14T22:57:07.688Z,17.90
2023-05-14T22:59:35.432Z,17.80
2023-05-14T23:02:03.148Z,17.80
2023-05-14T23:04:31.045Z,17.80
2023-05-14T23:06:58.793Z,17.80
2023-05-14T23:09:26.723Z,17.80
2023-05-14T23:11:54.228Z,17.70
2023-05-14T23:14:22.627Z,17.70
2023-05-14T23:16:50.233Z,17.70
2023-05-14T23:19:17.923Z,17.70
2023-05-14T23:21:45.649Z,17.70
2023-05-14T23:24:13.191Z,17.60
2023-05-14T23:26:40.862Z,17.60
2023-05-14T23:29:08.999Z,17.60
2023-05-14T23:31:36.983Z,17.60
2023-05-14T23:34:04.427Z,17.50
2023-05-14T23:36:32.604Z,17.60
2023-05-14T23:39:00.475Z,17.50
2023-05-14T23:41:28.239Z,17.50
2023-05-14T23:43:55.992Z,17.50
2023-05-14T23:46:24.134Z,17.50
2023-05-14T23:48:52.252Z,17.50
2023-05-14T23:51:19.981Z,17.50
2023-05-14T23:53:48.237Z,17.50
2023-05-14T23:56:16.650Z,17.50
2023-05-14T23:58:44.576Z,17.50
